createdAt,value
2023-02-23T00:01:54.160Z,59.10
2023-02-23T00:04:21.372Z,69.53
2023-02-23T00:06:48.205Z,63.78
2023-02-23T00:09:35.095Z,67.45
2023-02-23T00:12:07.632Z,63.85
2023-02-23T00:14:35.242Z,66.78
2023-02-23T00:17:01.901Z,66.10
2023-02-23T00:19:28.545Z,66.65
2023-02-23T00:21:58.768Z,63.85
2023-02-23T00:24:27.032Z,65.93
2023-02-23T00:26:53.765Z,63.75
2023-02-23T00:29:22.679Z,72.05
2023-02-23T00:31:50.351Z,73.00
2023-02-23T00:34:22.010Z,73.75
2023-02-23T00:36:55.119Z,66.75
2023-02-23T00:39:24.221Z,67.45
2023-02-23T00:41:52.518Z,67.10
2023-02-23T00:44:21.838Z,73.30
2023-02-23T00:46:51.888Z,68.80
2023-02-23T00:49:20.556Z,73.85
2023-02-23T00:51:47.305Z,69.38
2023-02-23T00:54:15.366Z,69.65
2023-02-23T00:56:42.261Z,66.93
2023-02-23T00:59:09.641Z,72.05
2023-02-23T01:01:37.674Z,71.35
2023-02-23T01:04:05.698Z,68.55
2023-02-23T01:06:32.440Z,73.68
2023-02-23T01:08:59.251Z,74.43
2023-02-23T01:11:28.107Z,71.05
2023-02-23T01:13:59.878Z,74.45
2023-02-23T01:16:31.758Z,75.07
2023-02-23T01:19:02.243Z,79.57
2023-02-23T01:21:35.058Z,88.32
2023-02-23T01:24:02.367Z,72.80
2023-02-23T01:26:34.430Z,80.05
2023-02-23T01:29:13.236Z,72.63
2023-02-23T01:31:42.052Z,74.55
2023-02-23T01:34:11.872Z,78.78
2023-02-23T01:36:40.432Z,74.75
2023-02-23T01:39:14.922Z,80.97
2023-02-23T01:41:44.820Z,74.90
2023-02-23T01:44:14.527Z,73.18
2023-02-23T01:46:46.184Z,70.57
2023-02-23T01:49:25.671Z,73.25
2023-02-23T01:51:57.487Z,71.82
2023-02-23T01:54:50.445Z,74.85
2023-02-23T01:57:18.558Z,69.20
2023-02-23T01:59:49.410Z,74.10
2023-02-23T02:02:21.153Z,77.75
2023-02-23T02:04:52.016Z,68.78
2023-02-23T02:07:26.622Z,71.70
2023-02-23T02:10:12.249Z,67.28
2023-02-23T02:12:44.242Z,71.10
2023-02-23T02:15:17.309Z,73.72
2023-02-23T02:18:03.349Z,85.43
2023-02-23T02:20:55.465Z,70.47
2023-02-23T02:24:00.857Z,70.50
2023-02-23T02:26:30.319Z,70.47
2023-02-23T02:29:06.001Z,82.47
2023-02-23T02:32:07.937Z,78.90
2023-02-23T02:35:03.934Z,72.70
2023-02-23T02:38:01.713Z,88.95
2023-02-23T02:40:40.796Z,77.80
2023-02-23T02:43:24.559Z,83.88
2023-02-23T02:46:06.107Z,74.88
2023-02-23T02:48:59.530Z,72.97
2023-02-23T02:51:44.869Z,79.53
2023-02-23T02:54:23.593Z,80.97
2023-02-23T02:56:50.826Z,76.82
2023-02-23T02:59:38.119Z,80.53
2023-02-23T03:02:24.618Z,77.40
2023-02-23T03:05:10.058Z,77.70
2023-02-23T03:08:01.446Z,75.85
2023-02-23T03:11:06.426Z,78.40
2023-02-23T03:14:11.531Z,84.82
2023-02-23T03:17:14.939Z,77.93
2023-02-23T03:20:38.682Z,77.43
2023-02-23T03:23:52.144Z,80.95
2023-02-23T03:27:13.929Z,80.75
2023-02-23T03:30:02.184Z,75.47
2023-02-23T03:32:59.868Z,71.28
2023-02-23T03:36:11.659Z,81.38
2023-02-23T03:39:01.699Z,80.63
2023-02-23T03:41:47.886Z,78.28
2023-02-23T03:44:39.677Z,76.60
2023-02-23T03:47:26.009Z,74.65
2023-02-23T03:50:13.026Z,80.70
2023-02-23T03:53:06.025Z,82.80
2023-02-23T03:55:54.244Z,82.05
2023-02-23T03:58:49.697Z,77.13
2023-02-23T04:01:36.985Z,78.80
2023-02-23T04:04:23.744Z,70.43
2023-02-23T04:07:09.518Z,74.65
2023-02-23T04:09:55.202Z,76.65
2023-02-23T04:12:45.483Z,73.05
2023-02-23T04:15:13.221Z,78.25
2023-02-23T04:17:40.325Z,81.10
2023-02-23T04:20:07.458Z,79.45
2023-02-23T04:22:35.521Z,88.32
2023-02-23T04:25:02.243Z,86.70
2023-02-23T04:27:28.958Z,79.55
2023-02-23T04:29:55.648Z,88.18
2023-02-23T04:32:22.451Z,91.05
2023-02-23T04:34:49.798Z,89.30
2023-02-23T04:37:16.558Z,82.15
2023-02-23T04:39:48.483Z,81.95
2023-02-23T04:42:19.012Z,91.72
2023-02-23T04:44:45.694Z,82.18
2023-02-23T04:47:14.480Z,81.93
2023-02-23T04:49:41.140Z,84.63
2023-02-23T04:52:07.877Z,89.28
2023-02-23T04:54:38.077Z,82.13
2023-02-23T04:57:04.918Z,83.82
2023-02-23T04:59:32.413Z,83.32
2023-02-23T05:01:59.133Z,89.72
2023-02-23T05:04:25.788Z,82.80
2023-02-23T05:06:53.097Z,77.30
2023-02-23T05:09:19.783Z,79.80
2023-02-23T05:11:46.550Z,83.72
2023-02-23T05:14:13.192Z,88.75
2023-02-23T05:16:40.032Z,89.00
2023-02-23T05:19:06.730Z,90.32
2023-02-23T05:21:33.380Z,84.82
2023-02-23T05:24:00.263Z,82.57
2023-02-23T05:26:26.918Z,81.53
2023-02-23T05:28:54.886Z,87.28
2023-02-23T05:31:21.766Z,86.85
2023-02-23T05:33:48.685Z,86.35
2023-02-23T05:36:17.471Z,93.70
2023-02-23T05:38:45.747Z,94.78
2023-02-23T05:41:15.050Z,87.95
2023-02-23T05:43:42.161Z,97.03
2023-02-23T05:46:10.298Z,88.93
2023-02-23T05:48:37.389Z,94.07
2023-02-23T05:51:05.267Z,83.75
2023-02-23T05:53:32.211Z,93.80
2023-02-23T05:55:59.244Z,87.18
2023-02-23T05:58:25.905Z,88.15
2023-02-23T06:00:52.752Z,92.30
2023-02-23T06:03:19.671Z,93.25
2023-02-23T06:05:51.721Z,88.18
2023-02-23T06:08:18.360Z,91.07
2023-02-23T06:10:45.010Z,95.80
2023-02-23T06:13:11.906Z,105.15
2023-02-23T06:15:38.678Z,89.45
2023-02-23T06:18:06.091Z,95.03
2023-02-23T06:20:32.720Z,92.80
2023-02-23T06:22:59.349Z,86.13
2023-02-23T06:25:25.963Z,86.32
2023-02-23T06:27:52.999Z,97.78
2023-02-23T06:30:19.833Z,95.10
2023-02-23T06:32:46.521Z,100.95
2023-02-23T06:35:17.456Z,92.63
2023-02-23T06:37:44.215Z,96.00
2023-02-23T06:40:11.390Z,93.15
2023-02-23T06:42:38.050Z,101.72
2023-02-23T06:45:05.547Z,99.47
2023-02-23T06:47:32.287Z,95.28
2023-02-23T06:50:00.024Z,95.38
2023-02-23T06:52:26.706Z,96.57
2023-02-23T06:54:53.309Z,94.95
2023-02-23T06:57:21.528Z,101.65
2023-02-23T06:59:48.301Z,105.20
2023-02-23T07:02:15.053Z,119.70
2023-02-23T07:04:41.765Z,107.28
2023-02-23T07:07:08.655Z,102.90
2023-02-23T07:09:35.278Z,114.88
2023-02-23T07:12:02.001Z,107.85
2023-02-23T07:14:28.602Z,105.80
2023-02-23T07:16:55.234Z,115.40
2023-02-23T07:19:21.950Z,99.53
2023-02-23T07:21:48.709Z,99.22
2023-02-23T07:24:15.354Z,97.40
2023-02-23T07:26:45.769Z,105.28
2023-02-23T07:29:12.594Z,111.72
2023-02-23T07:31:40.148Z,116.00
2023-02-23T07:34:07.870Z,115.82
2023-02-23T07:36:35.181Z,112.25
2023-02-23T07:39:02.698Z,104.20
2023-02-23T07:41:29.401Z,107.80
2023-02-23T07:43:56.124Z,105.75
2023-02-23T07:46:22.762Z,101.97
2023-02-23T07:48:49.496Z,108.75
2023-02-23T07:51:17.606Z,105.78
2023-02-23T07:53:44.920Z,116.65
2023-02-23T07:56:12.190Z,105.78
2023-02-23T07:58:40.516Z,108.70
2023-02-23T08:01:08.367Z,106.85
2023-02-23T08:03:35.048Z,113.38
2023-02-23T08:06:01.755Z,122.38
2023-02-23T08:08:28.544Z,113.07
2023-02-23T08:11:02.740Z,117.18
2023-02-23T08:13:29.916Z,113.80
2023-02-23T08:15:56.905Z,109.53
2023-02-23T08:18:23.696Z,113.57
2023-02-23T08:20:50.446Z,110.72
2023-02-23T08:23:18.234Z,118.72
2023-02-23T08:25:44.869Z,112.93
2023-02-23T08:28:12.230Z,98.78
2023-02-23T08:30:39.673Z,105.63
2023-02-23T08:33:07.275Z,96.93
2023-02-23T08:35:33.959Z,99.85
2023-02-23T08:38:00.587Z,101.47
2023-02-23T08:40:27.237Z,110.53
2023-02-23T08:42:53.931Z,111.50
2023-02-23T08:45:20.736Z,108.75
2023-02-23T08:47:47.472Z,104.55
2023-02-23T08:50:14.531Z,100.25
2023-02-23T08:52:41.410Z,103.10
2023-02-23T08:55:08.590Z,99.07
2023-02-23T08:57:36.000Z,105.32
2023-02-23T09:00:03.889Z,115.05
2023-02-23T09:02:30.630Z,114.85
2023-02-23T09:04:58.255Z,98.53
2023-02-23T09:07:25.662Z,105.55
2023-02-23T09:09:59.058Z,114.05
2023-02-23T09:12:25.745Z,102.07
2023-02-23T09:14:53.847Z,113.68
2023-02-23T09:17:22.931Z,98.93
2023-02-23T09:19:50.882Z,110.68
2023-02-23T09:22:18.440Z,90.22
2023-02-23T09:24:45.495Z,99.25
2023-02-23T09:27:12.964Z,104.82
2023-02-23T09:29:43.299Z,103.07
2023-02-23T09:32:11.415Z,94.55
2023-02-23T09:34:38.119Z,92.30
2023-02-23T09:37:05.999Z,91.05
2023-02-23T09:39:38.577Z,104.90
2023-02-23T09:42:37.621Z,108.47
2023-02-23T09:45:10.212Z,108.70
2023-02-23T09:47:40.569Z,96.22
2023-02-23T09:50:18.107Z,94.85
2023-02-23T09:52:47.754Z,94.90
2023-02-23T09:55:14.792Z,104.68
2023-02-23T09:57:46.215Z,93.88
2023-02-23T10:00:25.287Z,96.03
2023-02-23T10:03:14.291Z,97.95
2023-02-23T10:05:44.145Z,90.07
2023-02-23T10:08:21.047Z,98.15
2023-02-23T10:10:49.866Z,99.88
2023-02-23T10:13:27.575Z,100.13
2023-02-23T10:15:55.983Z,102.15
2023-02-23T10:18:45.265Z,113.63
2023-02-23T10:21:24.937Z,105.20
2023-02-23T10:23:54.338Z,104.35
2023-02-23T10:26:47.296Z,113.30
2023-02-23T10:29:33.186Z,93.60
2023-02-23T10:32:22.562Z,99.45
2023-02-23T10:34:54.778Z,95.25
2023-02-23T10:37:23.439Z,96.97
2023-02-23T10:39:51.448Z,92.40
2023-02-23T10:42:23.509Z,85.47
2023-02-23T10:44:50.505Z,99.43
2023-02-23T10:47:20.745Z,102.25
2023-02-23T10:49:48.695Z,90.60
2023-02-23T10:52:18.852Z,80.68
2023-02-23T10:54:47.739Z,84.95
2023-02-23T10:57:30.261Z,80.95
2023-02-23T11:00:07.558Z,74.50
2023-02-23T11:02:36.375Z,69.82
2023-02-23T11:05:04.068Z,74.97
2023-02-23T11:07:32.411Z,83.75
2023-02-23T11:10:00.711Z,70.70
2023-02-23T11:12:41.967Z,68.85
2023-02-23T11:15:49.110Z,72.05
2023-02-23T11:18:23.140Z,60.42
2023-02-23T11:20:50.005Z,53.50
2023-02-23T11:23:29.628Z,51.83
2023-02-23T11:26:01.909Z,48.83
2023-02-23T11:28:37.561Z,44.45
2023-02-23T11:31:12.953Z,50.50
2023-02-23T11:33:40.159Z,41.40
2023-02-23T11:36:49.885Z,48.08
2023-02-23T11:39:22.809Z,44.40
2023-02-23T11:42:19.770Z,43.60
2023-02-23T11:45:05.028Z,42.17
2023-02-23T11:47:33.981Z,44.33
2023-02-23T11:50:01.665Z,38.30
2023-02-23T11:52:29.317Z,39.72
2023-02-23T11:54:58.458Z,43.25
2023-02-23T11:57:30.254Z,47.03
2023-02-23T11:59:58.223Z,44.40
2023-02-23T12:02:35.255Z,47.85
2023-02-23T12:05:17.980Z,45.63
2023-02-23T12:08:02.528Z,45.42
2023-02-23T12:10:58.697Z,39.75
2023-02-23T12:13:34.469Z,41.20
2023-02-23T12:16:21.661Z,43.38
2023-02-23T12:19:28.663Z,38.75
2023-02-23T12:22:12.371Z,45.50
2023-02-23T12:24:56.882Z,49.47
2023-02-23T12:27:27.179Z,41.67
2023-02-23T12:30:08.646Z,40.17
2023-02-23T12:32:45.913Z,43.75
2023-02-23T12:35:20.320Z,44.40
2023-02-23T12:38:27.633Z,43.42
2023-02-23T12:41:00.094Z,46.90
2023-02-23T12:43:37.706Z,41.05
2023-02-23T12:46:43.667Z,42.25
2023-02-23T12:49:18.169Z,43.38
2023-02-23T12:51:51.661Z,43.65
2023-02-23T12:54:18.810Z,49.30
2023-02-23T12:56:51.557Z,37.90
2023-02-23T12:59:32.686Z,41.40
2023-02-23T13:02:01.752Z,44.85
2023-02-23T13:04:37.754Z,40.00
2023-02-23T13:07:21.707Z,38.55
2023-02-23T13:10:10.469Z,38.35
2023-02-23T13:12:46.146Z,40.60
2023-02-23T13:15:44.833Z,44.60
2023-02-23T13:18:34.122Z,44.60
2023-02-23T13:21:23.110Z,51.70
2023-02-23T13:24:03.884Z,46.50
2023-02-23T13:26:46.073Z,39.97
2023-02-23T13:29:34.714Z,39.90
2023-02-23T13:32:02.990Z,45.70
2023-02-23T13:34:41.246Z,30.83
2023-02-23T13:37:08.451Z,35.83
2023-02-23T13:39:45.334Z,36.30
2023-02-23T13:42:31.009Z,43.05
2023-02-23T13:45:40.588Z,36.25
2023-02-23T13:48:55.227Z,36.40
2023-02-23T13:51:35.183Z,48.15
2023-02-23T13:54:07.746Z,49.08
2023-02-23T13:56:47.939Z,38.20
2023-02-23T13:59:20.650Z,37.30
2023-02-23T14:01:50.152Z,40.60
2023-02-23T14:04:25.450Z,37.33
2023-02-23T14:07:04.980Z,42.03
2023-02-23T14:09:37.631Z,35.03
2023-02-23T14:12:10.396Z,40.55
2023-02-23T14:14:37.351Z,36.00
2023-02-23T14:17:16.128Z,36.05
2023-02-23T14:20:06.699Z,39.42
2023-02-23T14:22:34.345Z,38.58
2023-02-23T14:25:35.305Z,38.17
2023-02-23T14:28:15.608Z,38.58
2023-02-23T14:30:51.200Z,38.38
2023-02-23T14:33:36.738Z,38.45
2023-02-23T14:36:25.791Z,42.33
2023-02-23T14:39:07.788Z,38.97
2023-02-23T14:41:39.851Z,37.63
2023-02-23T14:44:27.161Z,33.85
2023-02-23T14:47:14.541Z,39.53
2023-02-23T14:49:47.279Z,40.88
2023-02-23T14:52:24.936Z,40.47
2023-02-23T14:54:52.536Z,44.92
2023-02-23T14:57:24.947Z,43.92
2023-02-23T15:00:03.365Z,36.67
2023-02-23T15:02:30.859Z,39.35
2023-02-23T15:04:57.762Z,43.10
2023-02-23T15:07:30.988Z,38.38
2023-02-23T15:09:59.311Z,42.35
2023-02-23T15:12:34.453Z,39.90
2023-02-23T15:15:02.897Z,40.25
2023-02-23T15:17:32.141Z,38.42
2023-02-23T15:20:15.911Z,43.30
2023-02-23T15:22:46.860Z,50.33
2023-02-23T15:25:23.860Z,42.20
2023-02-23T15:27:51.988Z,43.15
2023-02-23T15:30:18.872Z,38.30
2023-02-23T15:32:45.962Z,36.92
2023-02-23T15:35:13.214Z,43.78
2023-02-23T15:40:22.694Z,47.08
2023-02-23T15:42:51.970Z,48.35
2023-02-23T15:45:46.637Z,40.15
2023-02-23T15:48:18.526Z,42.45
2023-02-23T15:50:57.477Z,41.95
2023-02-23T15:53:34.317Z,38.10
2023-02-23T15:56:14.342Z,43.28
2023-02-23T15:58:56.440Z,47.05
2023-02-23T16:01:28.838Z,50.22
2023-02-23T16:04:07.254Z,46.72
2023-02-23T16:06:41.698Z,47.28
2023-02-23T16:09:13.516Z,42.28
2023-02-23T16:11:41.115Z,44.63
2023-02-23T16:14:15.354Z,38.88
2023-02-23T16:16:42.852Z,41.30
2023-02-23T16:19:14.434Z,40.38
2023-02-23T16:21:41.156Z,43.05
2023-02-23T16:24:13.458Z,46.25
2023-02-23T16:26:46.277Z,37.60
2023-02-23T16:29:21.122Z,44.63
2023-02-23T16:31:53.871Z,40.00
2023-02-23T16:34:28.009Z,39.20
2023-02-23T16:37:00.917Z,40.45
2023-02-23T16:39:31.996Z,45.30
2023-02-23T16:41:58.998Z,48.22
2023-02-23T16:44:34.386Z,41.60
2023-02-23T16:47:08.239Z,46.08
2023-02-23T16:49:34.876Z,43.88
2023-02-23T16:52:01.652Z,42.75
2023-02-23T16:54:28.383Z,56.65
2023-02-23T16:56:55.384Z,45.35
2023-02-23T16:59:23.137Z,49.33
2023-02-23T17:01:50.776Z,41.30
2023-02-23T17:04:19.078Z,40.75
2023-02-23T17:06:47.302Z,39.10
2023-02-23T17:09:13.929Z,41.95
2023-02-23T17:11:41.328Z,51.00
2023-02-23T17:14:07.969Z,44.80
2023-02-23T17:16:35.103Z,42.53
2023-02-23T17:19:01.987Z,40.55
2023-02-23T17:21:28.703Z,38.20
2023-02-23T17:24:02.562Z,44.88
2023-02-23T17:26:29.253Z,44.33
2023-02-23T17:28:55.895Z,48.97
2023-02-23T17:31:25.626Z,46.83
2023-02-23T17:33:55.130Z,49.10
2023-02-23T17:36:23.859Z,47.20
2023-02-23T17:38:50.724Z,48.75
2023-02-23T17:41:19.639Z,55.50
2023-02-23T17:43:46.518Z,52.47
2023-02-23T17:46:13.424Z,46.25
2023-02-23T17:48:44.329Z,50.22
2023-02-23T17:51:12.737Z,53.38
2023-02-23T17:53:39.947Z,46.90
2023-02-23T17:56:07.954Z,46.28
2023-02-23T17:58:35.491Z,47.85
2023-02-23T18:01:04.630Z,52.03
2023-02-23T18:03:33.644Z,60.30
2023-02-23T18:06:04.154Z,57.83
2023-02-23T18:08:31.306Z,46.97
2023-02-23T18:10:58.513Z,48.97
2023-02-23T18:13:25.841Z,55.28
2023-02-23T18:15:54.604Z,47.90
2023-02-23T18:18:23.919Z,53.25
2023-02-23T18:20:52.223Z,54.33
2023-02-23T18:23:19.957Z,71.22
2023-02-23T18:25:47.369Z,56.72
2023-02-23T18:28:14.638Z,49.60
2023-02-23T18:30:42.010Z,52.42
2023-02-23T18:33:09.185Z,51.22
2023-02-23T18:35:42.157Z,64.75
2023-02-23T18:38:13.995Z,61.25
2023-02-23T18:40:40.875Z,54.78
2023-02-23T18:43:08.280Z,58.42
2023-02-23T18:45:35.238Z,51.83
2023-02-23T18:48:01.990Z,58.45
2023-02-23T18:50:28.718Z,59.25
2023-02-23T18:52:56.580Z,49.42
2023-02-23T18:55:23.555Z,47.42
2023-02-23T18:57:52.579Z,57.95
2023-02-23T19:00:20.027Z,60.20
2023-02-23T19:02:46.717Z,65.50
2023-02-23T19:05:14.398Z,65.30
2023-02-23T19:07:41.527Z,54.45
2023-02-23T19:10:12.169Z,58.05
2023-02-23T19:12:39.652Z,50.80
2023-02-23T19:15:07.359Z,58.47
2023-02-23T19:17:35.753Z,53.97
2023-02-23T19:20:02.455Z,57.05
2023-02-23T19:22:29.819Z,58.35
2023-02-23T19:24:56.436Z,51.67
2023-02-23T19:27:25.888Z,51.33
2023-02-23T19:29:52.532Z,59.13
2023-02-23T19:32:19.391Z,52.42
2023-02-23T19:34:48.914Z,63.53
2023-02-23T19:37:15.532Z,53.97
2023-02-23T19:39:42.215Z,67.45
2023-02-23T19:42:09.235Z,63.97
2023-02-23T19:44:35.956Z,58.40
2023-02-23T19:47:02.599Z,47.35
2023-02-23T19:49:29.330Z,53.42
2023-02-23T19:51:57.710Z,50.53
2023-02-23T19:54:26.109Z,45.97
2023-02-23T19:56:53.106Z,52.95
2023-02-23T19:59:19.745Z,56.30
2023-02-23T20:01:46.368Z,46.63
2023-02-23T20:04:13.159Z,44.17
2023-02-23T20:06:44.881Z,52.50
2023-02-23T20:09:11.798Z,48.85
2023-02-23T20:11:38.504Z,51.83
2023-02-23T20:14:07.511Z,49.75
2023-02-23T20:16:34.821Z,48.35
2023-02-23T20:19:01.700Z,47.72
2023-02-23T20:21:30.514Z,48.22
2023-02-23T20:23:57.409Z,54.45
2023-02-23T20:26:26.984Z,45.83
2023-02-23T20:28:54.346Z,62.63
2023-02-23T20:31:26.853Z,54.78
2023-02-23T20:33:54.883Z,48.72
2023-02-23T20:36:22.582Z,53.75
2023-02-23T20:38:49.306Z,41.03
2023-02-23T20:41:17.271Z,51.17
2023-02-23T20:43:44.071Z,48.20
2023-02-23T20:46:15.725Z,46.58
2023-02-23T20:48:42.739Z,24.02
2023-02-23T20:51:12.955Z,20.75
2023-02-23T20:53:40.756Z,19.20
2023-02-23T20:56:08.709Z,13.32
2023-02-23T20:58:35.432Z,17.95
2023-02-23T21:01:06.244Z,20.23
2023-02-23T21:03:34.038Z,19.52
2023-02-23T21:06:01.096Z,15.60
2023-02-23T21:08:28.784Z,16.33
2023-02-23T21:10:55.731Z,20.10
2023-02-23T21:13:23.268Z,16.33
2023-02-23T21:16:00.928Z,21.25
2023-02-23T21:18:28.512Z,22.42
2023-02-23T21:20:57.393Z,23.17
2023-02-23T21:23:25.136Z,25.58
2023-02-23T21:25:53.206Z,27.75
2023-02-23T21:28:20.702Z,26.20
2023-02-23T21:30:47.590Z,30.10
2023-02-23T21:33:14.577Z,27.02
2023-02-23T21:35:41.201Z,23.70
2023-02-23T21:38:08.258Z,23.67
2023-02-23T21:40:35.761Z,13.73
2023-02-23T21:43:06.604Z,23.48
2023-02-23T21:45:33.298Z,30.02
2023-02-23T21:47:59.982Z,24.13
2023-02-23T21:50:26.816Z,23.30
2023-02-23T21:52:55.994Z,24.58
2023-02-23T21:55:22.949Z,19.58
2023-02-23T21:57:50.768Z,19.00
2023-02-23T22:00:19.223Z,18.65
2023-02-23T22:02:46.776Z,21.40
2023-02-23T22:05:15.124Z,16.15
2023-02-23T22:07:41.974Z,18.27
2023-02-23T22:10:08.931Z,16.92
2023-02-23T22:12:35.550Z,26.92
2023-02-23T22:15:12.752Z,16.10
2023-02-23T22:17:39.428Z,17.02
2023-02-23T22:20:11.931Z,17.38
2023-02-23T22:22:38.533Z,24.70
2023-02-23T22:25:06.879Z,17.65
2023-02-23T22:27:33.557Z,19.67
2023-02-23T22:30:01.459Z,17.67
2023-02-23T22:32:32.552Z,23.33
2023-02-23T22:35:00.289Z,16.13
2023-02-23T22:37:30.010Z,22.02
2023-02-23T22:39:57.912Z,20.75
2023-02-23T22:42:24.572Z,18.15
2023-02-23T22:44:51.378Z,15.90
2023-02-23T22:47:18.139Z,26.17
2023-02-23T22:49:47.482Z,15.82
2023-02-23T22:52:14.237Z,26.45
2023-02-23T22:54:43.693Z,18.67
2023-02-23T22:57:10.382Z,21.00
2023-02-23T22:59:37.119Z,22.67
2023-02-23T23:02:04.589Z,24.38
2023-02-23T23:04:34.247Z,17.77
2023-02-23T23:07:01.162Z,16.10
2023-02-23T23:09:28.731Z,23.17
2023-02-23T23:11:56.653Z,19.27
2023-02-23T23:14:23.516Z,41.28
2023-02-23T23:16:50.260Z,24.70
2023-02-23T23:19:26.248Z,29.58
2023-02-23T23:21:55.588Z,31.38
2023-02-23T23:24:25.059Z,21.75
2023-02-23T23:26:55.522Z,31.13
2023-02-23T23:29:23.114Z,37.22
2023-02-23T23:31:51.662Z,31.95
2023-02-23T23:34:21.639Z,29.67
2023-02-23T23:36:51.950Z,30.10
2023-02-23T23:39:22.072Z,21.60
2023-02-23T23:41:49.373Z,23.50
2023-02-23T23:44:17.439Z,30.05
2023-02-23T23:46:45.341Z,22.33
2023-02-23T23:49:25.444Z,29.02
2023-02-23T23:51:56.202Z,29.25
2023-02-23T23:54:29.260Z,27.98
2023-02-23T23:56:56.851Z,30.40
2023-02-23T23:59:25.303Z,31.90
